sensor_id;sensor_type;location;lat;lon;timestamp;pressure;altitude;pressure_sealevel;temperature;humidity
40992;BME280;29633;49.168;9.848;2023-03-25T00:02:14;96168.44;;;12.72;67.26
40992;BME280;29633;49.168;9.848;2023-03-25T00:04:41;96149.88;;;12.67;67.25
40992;BME280;29633;49.168;9.848;2023-03-25T00:07:07;96149.34;;;12.64;67.41
40992;BME280;29633;49.168;9.848;2023-03-25T00:09:33;96151.00;;;12.65;67.02
40992;BME280;29633;49.168;9.848;2023-03-25T00:11:58;96158.13;;;12.63;67.14
40992;BME280;29633;49.168;9.848;2023-03-25T00:14:24;96165.25;;;12.61;67.23
40992;BME280;29633;49.168;9.848;2023-03-25T00:16:50;96156.78;;;12.59;67.18
40992;BME280;29633;49.168;9.848;2023-03-25T00:19:18;96162.97;;;12.58;66.98
40992;BME280;29633;49.168;9.848;2023-03-25T00:21:49;96159.53;;;12.57;67.00
40992;BME280;29633;49.168;9.848;2023-03-25T00:24:18;96167.50;;;12.56;67.05
40992;BME280;29633;49.168;9.848;2023-03-25T00:26:45;96165.88;;;12.55;67.03
40992;BME280;29633;49.168;9.848;2023-03-25T00:29:11;96160.16;;;12.51;66.87
40992;BME280;29633;49.168;9.848;2023-03-25T00:31:38;96168.91;;;12.50;66.97
40992;BME280;29633;49.168;9.848;2023-03-25T00:34:05;96153.63;;;12.47;66.93
40992;BME280;29633;49.168;9.848;2023-03-25T00:36:31;96159.63;;;12.48;66.85
40992;BME280;29633;49.168;9.848;2023-03-25T00:38:56;96157.03;;;12.48;66.99
40992;BME280;29633;49.168;9.848;2023-03-25T00:41:24;96154.28;;;12.49;66.73
40992;BME280;29633;49.168;9.848;2023-03-25T00:43:51;96148.94;;;12.51;66.65
40992;BME280;29633;49.168;9.848;2023-03-25T00:46:17;96155.91;;;12.50;66.75
40992;BME280;29633;49.168;9.848;2023-03-25T00:48:43;96153.31;;;12.50;66.84
40992;BME280;29633;49.168;9.848;2023-03-25T00:51:08;96153.97;;;12.52;66.59
40992;BME280;29633;49.168;9.848;2023-03-25T00:53:39;96159.16;;;12.52;66.83
40992;BME280;29633;49.168;9.848;2023-03-25T00:56:05;96167.28;;;12.49;66.46
40992;BME280;29633;49.168;9.848;2023-03-25T00:58:31;96161.03;;;12.42;66.80
40992;BME280;29633;49.168;9.848;2023-03-25T01:00:57;96155.63;;;12.36;66.63
40992;BME280;29633;49.168;9.848;2023-03-25T01:03:23;96160.59;;;12.29;66.82
40992;BME280;29633;49.168;9.848;2023-03-25T01:05:50;96162.81;;;12.24;67.17
40992;BME280;29633;49.168;9.848;2023-03-25T01:08:19;96159.56;;;12.22;66.60
40992;BME280;29633;49.168;9.848;2023-03-25T01:10:54;96151.38;;;12.17;66.95
40992;BME280;29633;49.168;9.848;2023-03-25T01:13:20;96156.19;;;12.12;66.99
40992;BME280;29633;49.168;9.848;2023-03-25T01:15:46;96150.22;;;12.11;66.86
40992;BME280;29633;49.168;9.848;2023-03-25T01:18:12;96138.00;;;12.12;66.86
40992;BME280;29633;49.168;9.848;2023-03-25T01:20:39;96137.06;;;12.13;66.82
40992;BME280;29633;49.168;9.848;2023-03-25T01:23:04;96137.22;;;12.11;66.96
40992;BME280;29633;49.168;9.848;2023-03-25T01:25:30;96132.97;;;12.10;66.83
40992;BME280;29633;49.168;9.848;2023-03-25T01:27:56;96135.56;;;12.10;66.86
40992;BME280;29633;49.168;9.848;2023-03-25T01:30:21;96139.00;;;12.11;66.92
40992;BME280;29633;49.168;9.848;2023-03-25T01:32:47;96147.63;;;12.11;66.92
40992;BME280;29633;49.168;9.848;2023-03-25T01:35:13;96139.81;;;12.11;66.53
40992;BME280;29633;49.168;9.848;2023-03-25T01:37:38;96143.22;;;12.12;66.75
40992;BME280;29633;49.168;9.848;2023-03-25T01:40:05;96134.47;;;12.13;66.53
40992;BME280;29633;49.168;9.848;2023-03-25T01:42:33;96136.09;;;12.14;66.47
40992;BME280;29633;49.168;9.848;2023-03-25T01:45:29;96132.53;;;12.15;66.76
40992;BME280;29633;49.168;9.848;2023-03-25T01:48:00;96126.34;;;12.16;66.44
40992;BME280;29633;49.168;9.848;2023-03-25T01:50:27;96117.59;;;12.17;66.59
40992;BME280;29633;49.168;9.848;2023-03-25T01:52:53;96109.16;;;12.15;66.71
40992;BME280;29633;49.168;9.848;2023-03-25T01:55:21;96107.91;;;12.19;66.43
40992;BME280;29633;49.168;9.848;2023-03-25T01:57:48;96104.63;;;12.17;66.56
40992;BME280;29633;49.168;9.848;2023-03-25T02:00:18;96112.41;;;12.17;66.41
40992;BME280;29633;49.168;9.848;2023-03-25T02:02:45;96115.31;;;12.14;66.62
40992;BME280;29633;49.168;9.848;2023-03-25T02:07:42;96103.88;;;12.07;66.59
40992;BME280;29633;49.168;9.848;2023-03-25T02:10:11;96103.38;;;12.03;66.73
40992;BME280;29633;49.168;9.848;2023-03-25T02:12:37;96097.34;;;12.03;66.74
40992;BME280;29633;49.168;9.848;2023-03-25T02:15:04;96096.38;;;12.04;66.58
40992;BME280;29633;49.168;9.848;2023-03-25T02:28:41;96094.75;;;12.03;66.58
40992;BME280;29633;49.168;9.848;2023-03-25T02:34:31;96089.25;;;12.06;66.55
40992;BME280;29633;49.168;9.848;2023-03-25T02:40:15;96069.50;;;12.13;66.25
40992;BME280;29633;49.168;9.848;2023-03-25T02:43:59;96078.13;;;12.13;66.24
40992;BME280;29633;49.168;9.848;2023-03-25T02:46:08;96074.88;;;12.11;66.27
40992;BME280;29633;49.168;9.848;2023-03-25T02:48:41;96071.59;;;12.09;66.44
40992;BME280;29633;49.168;9.848;2023-03-25T02:51:15;96087.34;;;12.08;66.28
40992;BME280;29633;49.168;9.848;2023-03-25T02:53:44;96084.06;;;12.06;66.39
40992;BME280;29633;49.168;9.848;2023-03-25T02:56:12;96088.91;;;12.01;66.59
40992;BME280;29633;49.168;9.848;2023-03-25T02:58:39;96083.97;;;11.98;66.42
40992;BME280;29633;49.168;9.848;2023-03-25T03:01:06;96105.06;;;11.95;66.56
40992;BME280;29633;49.168;9.848;2023-03-25T03:03:36;96122.06;;;11.89;66.66
40992;BME280;29633;49.168;9.848;2023-03-25T03:06:03;96147.63;;;11.84;66.74
40992;BME280;29633;49.168;9.848;2023-03-25T03:14:18;96160.38;;;11.50;67.38
40992;BME280;29633;49.168;9.848;2023-03-25T03:17:24;96164.78;;;11.40;67.37
40992;BME280;29633;49.168;9.848;2023-03-25T03:24:56;96158.44;;;11.25;67.46
40992;BME280;29633;49.168;9.848;2023-03-25T03:27:28;96163.06;;;11.21;67.44
40992;BME280;29633;49.168;9.848;2023-03-25T03:30:06;96148.50;;;11.11;67.56
40992;BME280;29633;49.168;9.848;2023-03-25T03:33:10;96133.09;;;11.00;67.42
40992;BME280;29633;49.168;9.848;2023-03-25T03:35:32;96134.66;;;10.83;67.43
40992;BME280;29633;49.168;9.848;2023-03-25T03:38:00;96128.97;;;10.70;67.50
40992;BME280;29633;49.168;9.848;2023-03-25T03:40:28;96126.38;;;10.60;67.59
40992;BME280;29633;49.168;9.848;2023-03-25T03:43:02;96123.13;;;10.58;67.68
40992;BME280;29633;49.168;9.848;2023-03-25T03:45:49;96136.75;;;10.60;67.58
40992;BME280;29633;49.168;9.848;2023-03-25T03:48:21;96140.31;;;10.59;67.40
40992;BME280;29633;49.168;9.848;2023-03-25T03:50:52;96143.56;;;10.61;67.41
40992;BME280;29633;49.168;9.848;2023-03-25T03:53:28;96159.00;;;10.63;67.16
40992;BME280;29633;49.168;9.848;2023-03-25T03:56:09;96166.34;;;10.58;67.16
40992;BME280;29633;49.168;9.848;2023-03-25T03:58:38;96169.06;;;10.56;67.12
40992;BME280;29633;49.168;9.848;2023-03-25T04:01:15;96177.00;;;10.55;67.02
40992;BME280;29633;49.168;9.848;2023-03-25T04:04:02;96176.31;;;10.53;67.10
40992;BME280;29633;49.168;9.848;2023-03-25T04:09:18;96179.84;;;10.42;67.18
40992;BME280;29633;49.168;9.848;2023-03-25T04:12:14;96176.47;;;10.42;67.23
40992;BME280;29633;49.168;9.848;2023-03-25T04:14:42;96180.69;;;10.43;67.23
40992;BME280;29633;49.168;9.848;2023-03-25T04:17:08;96185.47;;;10.47;67.04
40992;BME280;29633;49.168;9.848;2023-03-25T04:19:33;96188.16;;;10.46;67.05
40992;BME280;29633;49.168;9.848;2023-03-25T04:22:00;96189.97;;;10.45;66.96
40992;BME280;29633;49.168;9.848;2023-03-25T04:24:29;96184.78;;;10.45;67.28
40992;BME280;29633;49.168;9.848;2023-03-25T04:26:59;96191.31;;;10.49;67.03
40992;BME280;29633;49.168;9.848;2023-03-25T04:29:28;96190.50;;;10.49;67.07
40992;BME280;29633;49.168;9.848;2023-03-25T04:31:56;96198.41;;;10.47;66.90
40992;BME280;29633;49.168;9.848;2023-03-25T04:34:22;96200.34;;;10.45;67.03
40992;BME280;29633;49.168;9.848;2023-03-25T04:36:48;96195.16;;;10.45;67.13
40992;BME280;29633;49.168;9.848;2023-03-25T04:39:16;96195.94;;;10.46;67.07
40992;BME280;29633;49.168;9.848;2023-03-25T04:41:43;96191.84;;;10.43;67.12
40992;BME280;29633;49.168;9.848;2023-03-25T04:44:09;96199.63;;;10.43;67.17
40992;BME280;29633;49.168;9.848;2023-03-25T04:46:35;96190.22;;;10.42;67.24
40992;BME280;29633;49.168;9.848;2023-03-25T04:49:03;96197.19;;;10.42;66.99
40992;BME280;29633;49.168;9.848;2023-03-25T04:51:31;96185.19;;;10.41;67.15
40992;BME280;29633;49.168;9.848;2023-03-25T04:53:57;96190.50;;;10.39;67.18
40992;BME280;29633;49.168;9.848;2023-03-25T04:56:23;96184.75;;;10.35;67.26
40992;BME280;29633;49.168;9.848;2023-03-25T04:58:49;96189.13;;;10.35;67.47
40992;BME280;29633;49.168;9.848;2023-03-25T05:01:25;96194.31;;;10.35;67.28
40992;BME280;29633;49.168;9.848;2023-03-25T05:03:57;96195.94;;;10.36;66.98
40992;BME280;29633;49.168;9.848;2023-03-25T05:06:36;96189.66;;;10.38;67.04
40992;BME280;29633;49.168;9.848;2023-03-25T05:09:09;96197.03;;;10.43;66.94
40992;BME280;29633;49.168;9.848;2023-03-25T05:11:36;96192.56;;;10.45;66.99
40992;BME280;29633;49.168;9.848;2023-03-25T05:14:05;96187.22;;;10.47;67.18
40992;BME280;29633;49.168;9.848;2023-03-25T05:16:31;96194.16;;;10.46;67.04
40992;BME280;29633;49.168;9.848;2023-03-25T05:18:57;96195.94;;;10.46;67.37
40992;BME280;29633;49.168;9.848;2023-03-25T05:21:23;96201.94;;;10.46;66.99
40992;BME280;29633;49.168;9.848;2023-03-25T05:23:48;96194.06;;;10.48;67.16
40992;BME280;29633;49.168;9.848;2023-03-25T05:26:14;96195.53;;;10.50;67.04
40992;BME280;29633;49.168;9.848;2023-03-25T05:28:40;96193.66;;;10.52;67.03
40992;BME280;29633;49.168;9.848;2023-03-25T05:31:06;96200.03;;;10.58;66.97
40992;BME280;29633;49.168;9.848;2023-03-25T05:33:36;96196.63;;;10.57;66.96
40992;BME280;29633;49.168;9.848;2023-03-25T05:36:11;96205.22;;;10.58;67.01
40992;BME280;29633;49.168;9.848;2023-03-25T05:38:38;96212.72;;;10.61;67.08
40992;BME280;29633;49.168;9.848;2023-03-25T05:41:17;96220.50;;;10.61;67.03
40992;BME280;29633;49.168;9.848;2023-03-25T05:43:43;96210.94;;;10.61;66.88
40992;BME280;29633;49.168;9.848;2023-03-25T05:46:12;96228.16;;;10.62;67.17
40992;BME280;29633;49.168;9.848;2023-03-25T05:48:39;96208.38;;;10.61;67.03
40992;BME280;29633;49.168;9.848;2023-03-25T05:51:14;96202.50;;;10.59;67.06
40992;BME280;29633;49.168;9.848;2023-03-25T05:53:47;96204.13;;;10.60;67.15
40992;BME280;29633;49.168;9.848;2023-03-25T05:56:14;96211.66;;;10.63;67.05
40992;BME280;29633;49.168;9.848;2023-03-25T05:58:43;96213.25;;;10.64;67.09
40992;BME280;29633;49.168;9.848;2023-03-25T06:01:10;96209.72;;;10.65;67.22
40992;BME280;29633;49.168;9.848;2023-03-25T06:03:39;96205.50;;;10.64;67.12
40992;BME280;29633;49.168;9.848;2023-03-25T06:06:06;96219.00;;;10.68;67.04
40992;BME280;29633;49.168;9.848;2023-03-25T06:08:42;96207.41;;;10.62;67.10
40992;BME280;29633;49.168;9.848;2023-03-25T06:11:10;96206.72;;;10.60;67.19
40992;BME280;29633;49.168;9.848;2023-03-25T06:13:40;96220.38;;;10.62;67.19
40992;BME280;29633;49.168;9.848;2023-03-25T06:16:07;96214.09;;;10.65;67.17
40992;BME280;29633;49.168;9.848;2023-03-25T06:18:37;96207.13;;;10.65;67.30
40992;BME280;29633;49.168;9.848;2023-03-25T06:21:03;96207.13;;;10.65;67.25
40992;BME280;29633;49.168;9.848;2023-03-25T06:23:30;96213.97;;;10.66;67.15
40992;BME280;29633;49.168;9.848;2023-03-25T06:26:00;96209.84;;;10.64;67.23
40992;BME280;29633;49.168;9.848;2023-03-25T06:28:25;96216.97;;;10.62;67.41
40992;BME280;29633;49.168;9.848;2023-03-25T06:30:51;96210.94;;;10.61;67.48
40992;BME280;29633;49.168;9.848;2023-03-25T06:33:17;96210.69;;;10.64;67.35
40992;BME280;29633;49.168;9.848;2023-03-25T06:35:47;96214.63;;;10.68;67.25
40992;BME280;29633;49.168;9.848;2023-03-25T06:38:19;96218.03;;;10.69;67.42
40992;BME280;29633;49.168;9.848;2023-03-25T06:40:48;96224.19;;;10.68;67.23
40992;BME280;29633;49.168;9.848;2023-03-25T06:43:14;96222.41;;;10.68;67.40
40992;BME280;29633;49.168;9.848;2023-03-25T06:45:40;96224.88;;;10.70;67.38
40992;BME280;29633;49.168;9.848;2023-03-25T06:48:06;96226.09;;;10.66;67.35
40992;BME280;29633;49.168;9.848;2023-03-25T06:50:32;96233.88;;;10.66;67.85
40992;BME280;29633;49.168;9.848;2023-03-25T06:52:57;96242.31;;;10.68;67.43
40992;BME280;29633;49.168;9.848;2023-03-25T06:55:23;96244.50;;;10.72;67.69
40992;BME280;29633;49.168;9.848;2023-03-25T06:57:49;96230.16;;;10.78;67.53
40992;BME280;29633;49.168;9.848;2023-03-25T07:00:15;96255.69;;;10.82;67.43
40992;BME280;29633;49.168;9.848;2023-03-25T07:02:45;96235.50;;;10.86;67.28
40992;BME280;29633;49.168;9.848;2023-03-25T07:05:11;96233.44;;;10.90;67.33
40992;BME280;29633;49.168;9.848;2023-03-25T07:07:36;96243.28;;;10.96;67.32
40992;BME280;29633;49.168;9.848;2023-03-25T07:10:03;96245.31;;;11.02;67.40
40992;BME280;29633;49.168;9.848;2023-03-25T07:12:28;96245.31;;;11.02;67.27
40992;BME280;29633;49.168;9.848;2023-03-25T07:14:55;96249.28;;;11.06;67.20
40992;BME280;29633;49.168;9.848;2023-03-25T07:17:25;96249.66;;;11.11;67.18
40992;BME280;29633;49.168;9.848;2023-03-25T07:19:50;96238.75;;;11.17;67.18
40992;BME280;29633;49.168;9.848;2023-03-25T07:22:16;96244.19;;;11.23;67.21
40992;BME280;29633;49.168;9.848;2023-03-25T07:24:42;96245.25;;;11.30;67.12
40992;BME280;29633;49.168;9.848;2023-03-25T07:27:11;96242.53;;;11.32;67.17
40992;BME280;29633;49.168;9.848;2023-03-25T07:29:38;96243.31;;;11.32;67.30
40992;BME280;29633;49.168;9.848;2023-03-25T07:32:03;96258.09;;;11.32;67.08
40992;BME280;29633;49.168;9.848;2023-03-25T07:34:29;96259.06;;;11.31;67.39
40992;BME280;29633;49.168;9.848;2023-03-25T07:36:55;96268.34;;;11.24;67.49
40992;BME280;29633;49.168;9.848;2023-03-25T07:39:21;96282.72;;;11.09;67.58
40992;BME280;29633;49.168;9.848;2023-03-25T07:41:50;96280.81;;;10.92;67.92
40992;BME280;29633;49.168;9.848;2023-03-25T07:44:16;96282.59;;;10.81;68.06
40992;BME280;29633;49.168;9.848;2023-03-25T07:46:45;96276.16;;;10.76;68.26
40992;BME280;29633;49.168;9.848;2023-03-25T07:49:11;96275.47;;;10.64;68.26
40992;BME280;29633;49.168;9.848;2023-03-25T07:51:36;96277.53;;;10.51;68.14
40992;BME280;29633;49.168;9.848;2023-03-25T07:54:02;96272.34;;;10.42;68.42
40992;BME280;29633;49.168;9.848;2023-03-25T07:56:28;96276.16;;;10.38;68.32
40992;BME280;29633;49.168;9.848;2023-03-25T07:58:54;96273.69;;;10.36;68.51
40992;BME280;29633;49.168;9.848;2023-03-25T08:01:19;96265.06;;;10.35;68.24
40992;BME280;29633;49.168;9.848;2023-03-25T08:03:45;96257.47;;;10.34;68.17
40992;BME280;29633;49.168;9.848;2023-03-25T08:06:11;96264.25;;;10.35;68.16
40992;BME280;29633;49.168;9.848;2023-03-25T08:08:36;96260.44;;;10.39;67.90
40992;BME280;29633;49.168;9.848;2023-03-25T08:11:02;96258.28;;;10.54;68.05
40992;BME280;29633;49.168;9.848;2023-03-25T08:13:28;96259.09;;;10.64;67.85
40992;BME280;29633;49.168;9.848;2023-03-25T08:15:53;96255.44;;;10.76;67.77
40992;BME280;29633;49.168;9.848;2023-03-25T08:18:19;96257.31;;;10.93;67.53
40992;BME280;29633;49.168;9.848;2023-03-25T08:20:45;96255.13;;;11.08;67.45
40992;BME280;29633;49.168;9.848;2023-03-25T08:23:11;96268.22;;;11.16;67.57
40992;BME280;29633;49.168;9.848;2023-03-25T08:25:37;96244.06;;;11.25;67.47
40992;BME280;29633;49.168;9.848;2023-03-25T08:28:04;96245.38;;;11.39;67.57
40992;BME280;29633;49.168;9.848;2023-03-25T08:30:34;96248.50;;;11.42;67.57
40992;BME280;29633;49.168;9.848;2023-03-25T08:33:07;96243.97;;;11.54;67.72
40992;BME280;29633;49.168;9.848;2023-03-25T08:35:37;96237.78;;;11.64;67.66
40992;BME280;29633;49.168;9.848;2023-03-25T08:38:03;96231.03;;;11.81;67.78
40992;BME280;29633;49.168;9.848;2023-03-25T08:40:33;96232.19;;;11.96;67.57
40992;BME280;29633;49.168;9.848;2023-03-25T08:42:59;96227.63;;;12.08;67.49
40992;BME280;29633;49.168;9.848;2023-03-25T08:45:27;96233.81;;;12.24;67.25
40992;BME280;29633;49.168;9.848;2023-03-25T08:47:53;96230.41;;;12.42;67.30
40992;BME280;29633;49.168;9.848;2023-03-25T08:50:18;96224.16;;;12.52;67.14
40992;BME280;29633;49.168;9.848;2023-03-25T08:52:45;96224.03;;;12.54;67.25
40992;BME280;29633;49.168;9.848;2023-03-25T08:55:11;96228.09;;;12.56;67.38
40992;BME280;29633;49.168;9.848;2023-03-25T08:57:41;96230.06;;;12.54;67.42
40992;BME280;29633;49.168;9.848;2023-03-25T09:00:07;96225.81;;;12.53;67.67
40992;BME280;29633;49.168;9.848;2023-03-25T09:02:40;96227.59;;;12.53;67.73
40992;BME280;29633;49.168;9.848;2023-03-25T09:05:11;96220.75;;;12.52;67.55
40992;BME280;29633;49.168;9.848;2023-03-25T09:07:37;96231.97;;;12.52;67.84
40992;BME280;29633;49.168;9.848;2023-03-25T09:10:05;96239.75;;;12.52;67.74
40992;BME280;29633;49.168;9.848;2023-03-25T09:12:31;96226.94;;;12.51;67.84
40992;BME280;29633;49.168;9.848;2023-03-25T09:14:57;96228.84;;;12.49;67.79
40992;BME280;29633;49.168;9.848;2023-03-25T09:17:23;96204.50;;;12.50;67.83
40992;BME280;29633;49.168;9.848;2023-03-25T09:19:49;96226.31;;;12.57;67.66
40992;BME280;29633;49.168;9.848;2023-03-25T09:22:15;96214.53;;;12.62;67.57
40992;BME280;29633;49.168;9.848;2023-03-25T09:24:40;96201.44;;;12.72;67.70
40992;BME280;29633;49.168;9.848;2023-03-25T09:27:07;96188.72;;;12.87;67.57
40992;BME280;29633;49.168;9.848;2023-03-25T09:29:32;96198.88;;;12.98;67.31
40992;BME280;29633;49.168;9.848;2023-03-25T09:31:59;96183.09;;;12.99;67.32
40992;BME280;29633;49.168;9.848;2023-03-25T09:34:25;96192.03;;;12.97;67.33
40992;BME280;29633;49.168;9.848;2023-03-25T09:36:53;96192.34;;;12.94;67.56
40992;BME280;29633;49.168;9.848;2023-03-25T09:39:19;96185.66;;;12.91;67.79
40992;BME280;29633;49.168;9.848;2023-03-25T09:47:29;96183.41;;;12.96;67.66
40992;BME280;29633;49.168;9.848;2023-03-25T09:49:59;96195.91;;;12.93;67.52
40992;BME280;29633;49.168;9.848;2023-03-25T09:52:31;96220.06;;;12.85;67.59
40992;BME280;29633;49.168;9.848;2023-03-25T09:55:05;96249.66;;;12.66;67.80
40992;BME280;29633;49.168;9.848;2023-03-25T09:57:35;96253.66;;;12.43;68.19
40992;BME280;29633;49.168;9.848;2023-03-25T10:00:06;96243.25;;;12.25;68.37
40992;BME280;29633;49.168;9.848;2023-03-25T10:02:44;96234.84;;;12.14;68.31
40992;BME280;29633;49.168;9.848;2023-03-25T10:05:49;96223.38;;;12.07;68.44
40992;BME280;29633;49.168;9.848;2023-03-25T10:10:55;96216.53;;;12.06;68.36
40992;BME280;29633;49.168;9.848;2023-03-25T10:13:41;96218.00;;;12.18;68.30
40992;BME280;29633;49.168;9.848;2023-03-25T10:16:27;96223.13;;;12.27;68.07
40992;BME280;29633;49.168;9.848;2023-03-25T10:19:02;96230.88;;;12.37;68.13
40992;BME280;29633;49.168;9.848;2023-03-25T10:21:40;96212.22;;;12.42;67.94
40992;BME280;29633;49.168;9.848;2023-03-25T10:25:08;96218.22;;;12.42;67.95
40992;BME280;29633;49.168;9.848;2023-03-25T10:29:40;96205.09;;;12.44;68.19
40992;BME280;29633;49.168;9.848;2023-03-25T10:32:16;96211.84;;;12.54;68.09
40992;BME280;29633;49.168;9.848;2023-03-25T10:34:49;96211.63;;;12.65;68.28
40992;BME280;29633;49.168;9.848;2023-03-25T10:37:23;96201.44;;;12.72;68.17
40992;BME280;29633;49.168;9.848;2023-03-25T10:39:49;96215.63;;;12.77;68.04
40992;BME280;29633;49.168;9.848;2023-03-25T10:42:25;96204.75;;;12.82;68.01
40992;BME280;29633;49.168;9.848;2023-03-25T10:44:51;96210.66;;;12.84;68.33
40992;BME280;29633;49.168;9.848;2023-03-25T10:47:19;96210.47;;;12.86;68.29
40992;BME280;29633;49.168;9.848;2023-03-25T10:49:47;96204.31;;;12.87;68.27
40992;BME280;29633;49.168;9.848;2023-03-25T10:52:14;96213.75;;;12.88;68.05
40992;BME280;29633;49.168;9.848;2023-03-25T10:54:43;96217.63;;;12.83;68.09
40992;BME280;29633;49.168;9.848;2023-03-25T10:57:17;96235.75;;;12.75;68.51
40992;BME280;29633;49.168;9.848;2023-03-25T11:00:07;96230.66;;;12.66;68.32
40992;BME280;29633;49.168;9.848;2023-03-25T11:02:47;96229.88;;;12.56;68.58
40992;BME280;29633;49.168;9.848;2023-03-25T11:05:18;96217.88;;;12.55;68.39
40992;BME280;29633;49.168;9.848;2023-03-25T11:07:48;96230.78;;;12.64;68.58
40992;BME280;29633;49.168;9.848;2023-03-25T11:12:49;96224.16;;;12.88;68.08
40992;BME280;29633;49.168;9.848;2023-03-25T11:17:47;96229.94;;;13.17;68.14
40992;BME280;29633;49.168;9.848;2023-03-25T11:20:21;96208.19;;;13.26;67.82
40992;BME280;29633;49.168;9.848;2023-03-25T11:22:51;96229.22;;;13.32;67.89
40992;BME280;29633;49.168;9.848;2023-03-25T11:25:26;96227.31;;;13.35;68.11
40992;BME280;29633;49.168;9.848;2023-03-25T11:28:08;96214.31;;;13.43;68.05
40992;BME280;29633;49.168;9.848;2023-03-25T11:30:35;96209.16;;;13.51;68.00
40992;BME280;29633;49.168;9.848;2023-03-25T11:33:19;96198.97;;;13.65;67.92
40992;BME280;29633;49.168;9.848;2023-03-25T11:35:49;96201.50;;;13.83;68.01
40992;BME280;29633;49.168;9.848;2023-03-25T11:38:19;96191.75;;;13.93;67.92
40992;BME280;29633;49.168;9.848;2023-03-25T11:40:54;96183.97;;;14.01;67.88
40992;BME280;29633;49.168;9.848;2023-03-25T11:43:21;96170.78;;;14.11;67.68
40992;BME280;29633;49.168;9.848;2023-03-25T11:45:47;96166.25;;;14.13;67.81
40992;BME280;29633;49.168;9.848;2023-03-25T11:48:19;96171.59;;;14.11;67.80
40992;BME280;29633;49.168;9.848;2023-03-25T11:50:48;96161.69;;;14.07;68.04
40992;BME280;29633;49.168;9.848;2023-03-25T11:53:17;96146.84;;;14.07;67.69
40992;BME280;29633;49.168;9.848;2023-03-25T11:55:51;96160.38;;;14.03;67.66
40992;BME280;29633;49.168;9.848;2023-03-25T11:58:21;96171.72;;;13.94;67.67
40992;BME280;29633;49.168;9.848;2023-03-25T12:00:51;96155.72;;;13.80;67.97
40992;BME280;29633;49.168;9.848;2023-03-25T12:03:28;96150.16;;;13.75;67.76
40992;BME280;29633;49.168;9.848;2023-03-25T12:05:57;96163.00;;;13.69;67.87
40992;BME280;29633;49.168;9.848;2023-03-25T12:08:26;96157.16;;;13.67;67.77
40992;BME280;29633;49.168;9.848;2023-03-25T12:10:59;96162.50;;;13.65;67.86
40992;BME280;29633;49.168;9.848;2023-03-25T12:13:43;96168.06;;;13.70;67.85
40992;BME280;29633;49.168;9.848;2023-03-25T12:25:33;96168.59;;;13.82;67.57
40992;BME280;29633;49.168;9.848;2023-03-25T12:27:45;96148.41;;;13.84;67.42
40992;BME280;29633;49.168;9.848;2023-03-25T12:41:27;96156.38;;;13.82;67.43
40992;BME280;29633;49.168;9.848;2023-03-25T12:47:04;96148.47;;;14.08;67.19
40992;BME280;29633;49.168;9.848;2023-03-25T12:52:28;96141.19;;;14.28;67.02
40992;BME280;29633;49.168;9.848;2023-03-25T12:55:21;96152.59;;;14.27;66.92
40992;BME280;29633;49.168;9.848;2023-03-25T12:58:14;96131.72;;;14.19;66.82
40992;BME280;29633;49.168;9.848;2023-03-25T13:03:41;96134.94;;;14.05;66.65
40992;BME280;29633;49.168;9.848;2023-03-25T13:06:41;96134.94;;;14.05;67.03
40992;BME280;29633;49.168;9.848;2023-03-25T13:09:29;96126.97;;;14.06;66.91
40992;BME280;29633;49.168;9.848;2023-03-25T13:12:01;96155.78;;;14.05;66.74
40992;BME280;29633;49.168;9.848;2023-03-25T13:14:35;96183.50;;;14.06;66.73
40992;BME280;29633;49.168;9.848;2023-03-25T13:17:05;96197.97;;;14.00;66.89
40992;BME280;29633;49.168;9.848;2023-03-25T13:19:33;96184.44;;;13.89;66.71
40992;BME280;29633;49.168;9.848;2023-03-25T13:22:21;96171.19;;;13.74;66.97
40992;BME280;29633;49.168;9.848;2023-03-25T13:24:56;96174.56;;;13.66;67.18
40992;BME280;29633;49.168;9.848;2023-03-25T13:27:25;96176.00;;;13.61;66.63
40992;BME280;29633;49.168;9.848;2023-03-25T13:29:55;96176.31;;;13.58;67.00
40992;BME280;29633;49.168;9.848;2023-03-25T13:32:29;96166.41;;;13.61;67.17
40992;BME280;29633;49.168;9.848;2023-03-25T13:35:12;96158.13;;;13.66;67.20
40992;BME280;29633;49.168;9.848;2023-03-25T13:37:43;96157.03;;;13.76;67.03
40992;BME280;29633;49.168;9.848;2023-03-25T13:42:57;96151.56;;;13.96;66.78
40992;BME280;29633;49.168;9.848;2023-03-25T13:45:24;96142.44;;;14.00;66.71
40992;BME280;29633;49.168;9.848;2023-03-25T13:50:44;96148.66;;;14.23;66.74
40992;BME280;29633;49.168;9.848;2023-03-25T13:53:26;96151.25;;;14.23;66.61
40992;BME280;29633;49.168;9.848;2023-03-25T13:58:38;96137.56;;;14.29;66.43
40992;BME280;29633;49.168;9.848;2023-03-25T14:01:15;96143.81;;;14.44;66.34
40992;BME280;29633;49.168;9.848;2023-03-25T14:04:14;96132.25;;;14.55;66.44
40992;BME280;29633;49.168;9.848;2023-03-25T14:11:59;96136.97;;;15.00;66.12
40992;BME280;29633;49.168;9.848;2023-03-25T14:14:28;96163.06;;;15.08;66.00
40992;BME280;29633;49.168;9.848;2023-03-25T14:16:58;96139.72;;;15.06;66.02
40992;BME280;29633;49.168;9.848;2023-03-25T14:19:33;96132.84;;;15.05;65.94
40992;BME280;29633;49.168;9.848;2023-03-25T14:22:23;96127.47;;;15.07;65.87
40992;BME280;29633;49.168;9.848;2023-03-25T14:24:51;96131.72;;;15.08;65.79
40992;BME280;29633;49.168;9.848;2023-03-25T14:27:30;96150.97;;;15.07;65.74
40992;BME280;29633;49.168;9.848;2023-03-25T14:32:35;96139.72;;;15.06;65.46
40992;BME280;29633;49.168;9.848;2023-03-25T14:37:56;96135.94;;;15.17;65.31
40992;BME280;29633;49.168;9.848;2023-03-25T14:43:32;96141.66;;;15.12;65.16
40992;BME280;29633;49.168;9.848;2023-03-25T14:48:35;96147.81;;;15.27;64.84
40992;BME280;29633;49.168;9.848;2023-03-25T14:56:22;96141.09;;;15.49;64.29
40992;BME280;29633;49.168;9.848;2023-03-25T14:58:53;96137.81;;;15.55;64.13
40992;BME280;29633;49.168;9.848;2023-03-25T15:01:26;96139.75;;;15.61;64.25
40992;BME280;29633;49.168;9.848;2023-03-25T15:04:10;96150.84;;;15.63;64.21
40992;BME280;29633;49.168;9.848;2023-03-25T15:06:36;96136.78;;;15.64;64.18